createdAt,value
2023-03-16T00:01:58.857Z,4.87
2023-03-16T00:04:28.284Z,4.97
2023-03-16T00:06:57.895Z,4.70
2023-03-16T00:09:31.406Z,4.00
2023-03-16T00:12:04.449Z,3.70
2023-03-16T00:14:35.726Z,3.73
2023-03-16T00:17:06.345Z,3.27
2023-03-16T00:19:38.737Z,4.17
2023-03-16T00:22:08.432Z,3.83
2023-03-16T00:24:37.929Z,8.63
2023-03-16T00:27:10.049Z,4.07
2023-03-16T00:29:39.644Z,3.07
2023-03-16T00:32:09.221Z,3.23
2023-03-16T00:34:38.716Z,4.50
2023-03-16T00:37:08.272Z,3.10
2023-03-16T00:39:38.137Z,3.27
2023-03-16T00:42:10.337Z,3.63
2023-03-16T00:44:41.828Z,3.60
2023-03-16T00:47:14.277Z,8.27
2023-03-16T00:49:44.412Z,3.57
2023-03-16T00:52:15.627Z,4.93
2023-03-16T00:54:48.155Z,5.47
2023-03-16T00:57:21.737Z,3.40
2023-03-16T00:59:51.604Z,3.83
2023-03-16T01:02:23.815Z,3.80
2023-03-16T01:04:54.793Z,3.53
2023-03-16T01:07:24.654Z,3.53
2023-03-16T01:09:54.264Z,3.93
2023-03-16T01:12:28.008Z,4.13
2023-03-16T01:14:58.031Z,3.17
2023-03-16T01:17:28.940Z,3.03
2023-03-16T01:19:58.445Z,3.07
2023-03-16T01:22:28.686Z,3.17
2023-03-16T01:24:58.530Z,3.97
2023-03-16T01:27:30.571Z,5.37
2023-03-16T01:30:00.284Z,3.83
2023-03-16T01:32:29.996Z,3.87
2023-03-16T01:34:59.581Z,3.47
2023-03-16T01:37:29.111Z,3.83
2023-03-16T01:40:02.266Z,4.37
2023-03-16T01:42:34.764Z,5.50
2023-03-16T01:45:05.966Z,3.37
2023-03-16T01:47:42.757Z,3.40
2023-03-16T01:50:17.942Z,3.20
2023-03-16T01:52:47.838Z,4.17
2023-03-16T01:55:18.419Z,4.63
2023-03-16T01:57:51.426Z,4.37
2023-03-16T02:00:24.675Z,4.70
2023-03-16T02:03:08.024Z,4.60
2023-03-16T02:05:48.783Z,4.63
2023-03-16T02:08:19.561Z,4.03
2023-03-16T02:10:49.422Z,3.77
2023-03-16T02:13:21.733Z,4.73
2023-03-16T02:15:51.530Z,4.20
2023-03-16T02:18:23.142Z,4.47
2023-03-16T02:20:55.078Z,5.87
2023-03-16T02:23:26.962Z,4.07
2023-03-16T02:26:01.571Z,3.90
2023-03-16T02:28:39.802Z,3.97
2023-03-16T02:31:12.427Z,4.10
2023-03-16T02:33:42.850Z,6.43
2023-03-16T02:36:12.669Z,5.07
2023-03-16T02:38:42.745Z,3.40
2023-03-16T02:41:14.572Z,4.00
2023-03-16T02:43:46.818Z,4.17
2023-03-16T02:46:29.779Z,4.73
2023-03-16T02:49:03.168Z,4.20
2023-03-16T02:51:32.866Z,4.17
2023-03-16T02:54:02.757Z,4.70
2023-03-16T02:56:35.159Z,4.97
2023-03-16T02:59:04.896Z,3.70
2023-03-16T03:01:37.659Z,4.37
2023-03-16T03:04:08.229Z,4.30
2023-03-16T03:06:37.811Z,3.63
2023-03-16T03:09:07.998Z,4.03
2023-03-16T03:11:37.625Z,4.20
2023-03-16T03:14:08.272Z,3.93
2023-03-16T03:16:42.589Z,4.70
2023-03-16T03:19:13.012Z,4.23
2023-03-16T03:21:43.258Z,4.27
2023-03-16T03:24:12.856Z,4.27
2023-03-16T03:26:42.323Z,5.40
2023-03-16T03:29:18.685Z,4.67
2023-03-16T03:31:50.903Z,6.03
2023-03-16T03:34:20.761Z,5.93
2023-03-16T03:36:50.266Z,4.77
2023-03-16T03:39:19.899Z,6.53
2023-03-16T03:41:54.676Z,8.13
2023-03-16T03:44:27.038Z,8.87
2023-03-16T03:47:00.482Z,7.10
2023-03-16T03:49:30.183Z,7.23
2023-03-16T03:52:02.187Z,8.93
2023-03-16T03:54:31.775Z,5.43
2023-03-16T03:57:04.869Z,6.67
2023-03-16T03:59:35.157Z,7.23
2023-03-16T04:02:33.828Z,6.57
2023-03-16T04:05:03.646Z,7.67
2023-03-16T04:07:33.179Z,8.67
2023-03-16T04:10:06.531Z,6.13
2023-03-16T04:12:42.520Z,6.93
2023-03-16T04:15:14.889Z,6.80
2023-03-16T04:17:59.854Z,11.20
2023-03-16T04:20:29.979Z,5.77
2023-03-16T04:23:01.195Z,7.03
2023-03-16T04:25:32.876Z,5.23
2023-03-16T04:28:02.501Z,7.27
2023-03-16T04:30:35.547Z,5.97
2023-03-16T04:33:18.228Z,4.53
2023-03-16T04:35:48.884Z,4.93
2023-03-16T04:38:19.671Z,6.30
2023-03-16T04:40:58.303Z,5.70
2023-03-16T04:43:34.462Z,7.13
2023-03-16T04:46:10.278Z,5.00
2023-03-16T04:48:43.444Z,6.17
2023-03-16T04:51:13.384Z,5.30
2023-03-16T04:53:49.340Z,7.57
2023-03-16T04:56:26.151Z,6.63
2023-03-16T04:59:01.628Z,8.13
2023-03-16T05:01:35.588Z,7.03
2023-03-16T05:04:11.566Z,5.83
2023-03-16T05:06:42.699Z,5.83
2023-03-16T05:09:12.776Z,6.70
2023-03-16T05:11:43.076Z,4.70
2023-03-16T05:14:15.972Z,5.07
2023-03-16T05:16:58.386Z,6.53
2023-03-16T05:19:31.075Z,5.77
2023-03-16T05:22:00.854Z,4.50
2023-03-16T05:24:30.376Z,6.57
2023-03-16T05:27:00.378Z,5.57
2023-03-16T05:29:31.377Z,4.67
2023-03-16T05:32:01.428Z,4.73
2023-03-16T05:34:34.975Z,4.83
2023-03-16T05:37:04.515Z,4.30
2023-03-16T05:39:35.410Z,4.67
2023-03-16T05:42:05.982Z,4.50
2023-03-16T05:44:45.393Z,4.50
2023-03-16T05:47:21.138Z,4.63
2023-03-16T05:49:58.645Z,3.80
2023-03-16T05:52:34.923Z,6.10
2023-03-16T05:55:12.259Z,4.20
2023-03-16T05:57:42.059Z,4.83
2023-03-16T06:00:15.640Z,4.77
2023-03-16T06:02:52.129Z,4.17
2023-03-16T06:05:25.319Z,4.47
2023-03-16T06:20:27.543Z,6.27
2023-03-16T06:30:28.160Z,7.47
2023-03-16T06:33:00.262Z,8.27
2023-03-16T06:35:32.664Z,7.00
2023-03-16T06:38:15.668Z,8.47
2023-03-16T06:40:57.244Z,7.77
2023-03-16T06:43:27.080Z,7.50
2023-03-16T06:45:57.520Z,7.70
2023-03-16T06:48:27.136Z,5.57
2023-03-16T06:50:59.328Z,6.80
2023-03-16T06:53:31.291Z,5.97
2023-03-16T06:56:01.488Z,6.60
2023-03-16T06:58:33.998Z,6.13
2023-03-16T07:01:05.346Z,6.63
2023-03-16T07:03:35.044Z,8.23
2023-03-16T07:06:13.069Z,7.37
2023-03-16T07:08:42.782Z,7.43
2023-03-16T07:11:14.998Z,7.63
2023-03-16T07:13:44.629Z,8.87
2023-03-16T07:16:15.252Z,7.23
2023-03-16T07:18:45.100Z,7.10
2023-03-16T07:21:20.016Z,7.70
2023-03-16T07:23:50.329Z,7.90
2023-03-16T07:26:26.181Z,7.33
2023-03-16T07:29:00.455Z,7.07
2023-03-16T07:31:30.191Z,7.07
2023-03-16T07:34:02.547Z,5.90
2023-03-16T07:36:42.394Z,6.53
2023-03-16T07:39:14.475Z,5.93
2023-03-16T07:41:45.139Z,4.93
2023-03-16T07:44:20.588Z,4.97
2023-03-16T07:46:51.605Z,5.37
2023-03-16T07:49:22.916Z,7.53
2023-03-16T07:51:56.168Z,6.23
2023-03-16T07:54:32.223Z,6.67
2023-03-16T07:57:02.052Z,5.73
2023-03-16T07:59:50.207Z,4.50
2023-03-16T08:02:21.772Z,4.17
2023-03-16T08:04:52.081Z,3.73
2023-03-16T08:07:24.312Z,2.43
2023-03-16T08:09:59.188Z,2.00
2023-03-16T08:12:40.261Z,3.03
2023-03-16T08:15:10.896Z,2.33
2023-03-16T08:17:41.876Z,2.57
2023-03-16T08:20:15.705Z,2.07
2023-03-16T08:22:49.832Z,4.10
2023-03-16T08:25:23.547Z,1.70
2023-03-16T08:28:04.579Z,1.80
2023-03-16T08:30:34.338Z,1.77
2023-03-16T08:33:42.252Z,1.70
2023-03-16T08:36:15.541Z,2.40
2023-03-16T08:39:06.078Z,2.00
2023-03-16T08:41:41.775Z,3.07
2023-03-16T08:44:23.914Z,2.30
2023-03-16T08:46:53.891Z,2.35
2023-03-16T08:49:24.331Z,3.07
2023-03-16T08:52:03.162Z,4.17
2023-03-16T08:54:35.366Z,3.37
2023-03-16T08:57:05.227Z,3.23
2023-03-16T08:59:35.039Z,2.37
2023-03-16T09:02:04.584Z,2.47
2023-03-16T09:04:34.298Z,5.35
2023-03-16T09:07:09.078Z,3.80
2023-03-16T09:09:41.922Z,5.28
2023-03-16T09:12:12.497Z,3.15
2023-03-16T09:14:42.110Z,3.83
2023-03-16T09:17:11.859Z,3.63
2023-03-16T09:19:51.083Z,2.78
2023-03-16T09:22:21.436Z,2.65
2023-03-16T09:24:53.708Z,3.20
2023-03-16T09:27:23.797Z,3.65
2023-03-16T09:29:56.453Z,3.58
2023-03-16T09:32:26.058Z,4.32
2023-03-16T09:34:55.553Z,2.83
2023-03-16T09:37:26.204Z,2.60
2023-03-16T09:40:06.614Z,2.80
2023-03-16T09:42:44.520Z,2.83
2023-03-16T09:45:18.779Z,2.33
2023-03-16T09:47:49.714Z,2.70
2023-03-16T09:50:23.658Z,1.90
2023-03-16T09:52:57.790Z,1.38
2023-03-16T09:55:45.903Z,2.35
2023-03-16T09:58:32.953Z,1.65
2023-03-16T10:01:17.890Z,1.77
2023-03-16T10:04:14.994Z,1.48
2023-03-16T10:12:22.384Z,1.65
2023-03-16T10:14:55.684Z,2.65
2023-03-16T10:17:26.997Z,1.60
2023-03-16T10:20:00.786Z,1.77
2023-03-16T10:22:33.671Z,3.10
2023-03-16T10:25:07.275Z,3.63
2023-03-16T10:27:42.136Z,1.85
2023-03-16T10:30:20.597Z,3.80
2023-03-16T10:32:50.249Z,1.35
2023-03-16T10:35:25.211Z,2.25
2023-03-16T10:37:54.904Z,2.80
2023-03-16T10:40:24.424Z,2.55
2023-03-16T10:42:56.659Z,3.85
2023-03-16T10:45:28.690Z,1.27
2023-03-16T10:48:08.239Z,1.50
2023-03-16T10:50:38.099Z,1.80
2023-03-16T10:53:08.951Z,1.90
2023-03-16T10:55:45.040Z,1.75
2023-03-16T10:58:25.400Z,2.03
2023-03-16T11:00:55.204Z,2.15
2023-03-16T11:03:27.731Z,1.73
2023-03-16T11:06:02.316Z,1.90
2023-03-16T11:08:35.319Z,2.70
2023-03-16T11:11:13.426Z,2.25
2023-03-16T11:13:47.230Z,2.03
2023-03-16T11:16:28.211Z,3.50
2023-03-16T11:18:59.423Z,2.67
2023-03-16T11:21:34.180Z,2.00
2023-03-16T11:24:05.654Z,1.85
2023-03-16T11:26:36.509Z,2.63
2023-03-16T11:29:11.963Z,1.80
2023-03-16T11:31:49.375Z,2.00
2023-03-16T11:34:20.458Z,2.63
2023-03-16T11:36:51.831Z,3.88
2023-03-16T11:39:27.590Z,2.97
2023-03-16T11:42:01.269Z,2.03
2023-03-16T11:44:36.335Z,1.90
2023-03-16T11:47:08.932Z,1.98
2023-03-16T11:49:50.510Z,1.92
2023-03-16T11:52:24.794Z,2.08
2023-03-16T11:54:58.401Z,1.92
2023-03-16T11:57:33.631Z,1.75
2023-03-16T12:00:15.133Z,1.85
2023-03-16T12:02:53.665Z,1.90
2023-03-16T12:05:27.072Z,1.85
2023-03-16T12:08:01.708Z,1.50
2023-03-16T12:10:33.232Z,1.75
2023-03-16T12:13:08.495Z,3.00
2023-03-16T12:15:45.174Z,1.35
2023-03-16T12:18:18.322Z,1.63
2023-03-16T12:20:51.490Z,2.05
2023-03-16T12:23:26.016Z,1.67
2023-03-16T12:25:56.435Z,1.95
2023-03-16T12:28:27.814Z,3.25
2023-03-16T12:31:09.488Z,1.70
2023-03-16T12:33:46.423Z,2.00
2023-03-16T12:36:31.247Z,1.45
2023-03-16T12:39:03.998Z,1.65
2023-03-16T12:41:38.838Z,2.53
2023-03-16T12:44:15.374Z,1.58
2023-03-16T12:46:52.842Z,1.42
2023-03-16T12:49:24.852Z,2.97
2023-03-16T12:52:01.767Z,1.50
2023-03-16T12:54:31.374Z,1.50
2023-03-16T12:57:04.892Z,1.73
2023-03-16T12:59:43.273Z,1.25
2023-03-16T13:02:18.485Z,1.98
2023-03-16T13:04:51.781Z,1.25
2023-03-16T13:07:22.925Z,1.45
2023-03-16T13:09:55.161Z,1.20
2023-03-16T13:12:26.095Z,1.17
2023-03-16T13:14:57.142Z,1.65
2023-03-16T13:17:30.883Z,1.60
2023-03-16T13:20:06.613Z,1.67
2023-03-16T13:22:45.427Z,1.00
2023-03-16T13:25:16.763Z,1.58
2023-03-16T13:27:49.345Z,0.98
2023-03-16T13:30:19.567Z,1.60
2023-03-16T13:32:55.588Z,0.98
2023-03-16T13:35:28.753Z,1.80
2023-03-16T13:37:58.546Z,1.55
2023-03-16T13:40:28.962Z,1.05
2023-03-16T13:43:00.085Z,1.42
2023-03-16T13:45:31.802Z,1.00
2023-03-16T13:48:05.605Z,1.73
2023-03-16T13:50:36.220Z,1.10
2023-03-16T13:53:08.896Z,1.10
2023-03-16T13:55:40.424Z,1.98
2023-03-16T13:58:21.666Z,1.77
2023-03-16T14:00:51.340Z,1.05
2023-03-16T14:03:24.851Z,1.10
2023-03-16T14:05:54.673Z,1.08
2023-03-16T14:08:25.131Z,1.20
2023-03-16T14:10:59.776Z,1.33
2023-03-16T14:13:38.626Z,1.08
2023-03-16T14:16:13.983Z,0.93
2023-03-16T14:18:47.556Z,0.70
2023-03-16T14:21:18.575Z,0.85
2023-03-16T14:23:49.154Z,1.30
2023-03-16T14:26:19.432Z,2.05
2023-03-16T14:28:57.614Z,1.08
2023-03-16T14:31:34.508Z,0.77
2023-03-16T14:34:09.417Z,1.00
2023-03-16T14:36:40.091Z,0.75
2023-03-16T14:39:13.740Z,1.08
2023-03-16T14:41:43.539Z,0.88
2023-03-16T14:44:21.442Z,0.77
2023-03-16T14:46:51.411Z,1.00
2023-03-16T14:49:25.514Z,0.63
2023-03-16T14:51:56.716Z,0.85
2023-03-16T14:54:26.303Z,0.90
2023-03-16T14:56:56.724Z,1.05
2023-03-16T14:59:26.215Z,0.82
2023-03-16T15:01:56.197Z,1.00
2023-03-16T15:04:31.534Z,0.90
2023-03-16T15:07:01.637Z,1.25
2023-03-16T15:09:35.881Z,1.27
2023-03-16T15:12:05.878Z,1.15
2023-03-16T15:14:47.748Z,4.32
2023-03-16T15:17:17.833Z,0.93
2023-03-16T15:19:50.539Z,0.90
2023-03-16T15:22:22.106Z,1.67
2023-03-16T15:24:51.646Z,1.55
2023-03-16T15:27:22.727Z,0.60
2023-03-16T15:29:52.378Z,0.77
2023-03-16T15:32:22.004Z,1.02
2023-03-16T15:34:54.107Z,0.85
2023-03-16T15:37:27.654Z,0.70
2023-03-16T15:39:57.446Z,0.90
2023-03-16T15:42:27.425Z,1.10
2023-03-16T15:44:56.996Z,0.80
2023-03-16T15:47:26.741Z,0.73
2023-03-16T15:49:58.870Z,0.90
2023-03-16T15:52:32.678Z,0.70
2023-03-16T15:55:07.835Z,1.67
2023-03-16T15:57:38.435Z,1.10
2023-03-16T16:00:10.844Z,0.75
2023-03-16T16:02:40.465Z,1.58
2023-03-16T16:05:14.192Z,1.10
2023-03-16T16:07:43.742Z,0.80
2023-03-16T16:10:15.613Z,1.00
2023-03-16T16:12:51.270Z,1.08
2023-03-16T16:15:23.248Z,1.25
2023-03-16T16:18:16.374Z,1.75
2023-03-16T16:20:45.015Z,2.10
2023-03-16T16:23:14.797Z,1.27
2023-03-16T16:25:45.063Z,1.50
2023-03-16T16:28:16.598Z,1.35
2023-03-16T16:30:46.494Z,1.23
2023-03-16T16:33:25.852Z,1.58
2023-03-16T16:35:58.664Z,1.67
2023-03-16T16:38:28.403Z,2.08
2023-03-16T16:40:58.812Z,2.00
2023-03-16T16:43:32.306Z,1.95
2023-03-16T16:46:03.430Z,1.73
2023-03-16T16:48:35.132Z,2.33
2023-03-16T16:51:08.097Z,2.40
2023-03-16T16:53:37.869Z,1.95
2023-03-16T16:56:08.188Z,2.90
2023-03-16T16:58:38.624Z,1.73
2023-03-16T17:01:08.144Z,2.53
2023-03-16T17:03:37.659Z,2.03
2023-03-16T17:06:10.709Z,1.95
2023-03-16T17:08:40.226Z,2.00
2023-03-16T17:11:12.782Z,3.80
2023-03-16T17:13:43.265Z,5.15
2023-03-16T17:16:16.814Z,6.60
2023-03-16T17:18:46.868Z,3.70
2023-03-16T17:21:20.452Z,4.30
2023-03-16T17:23:52.782Z,3.83
2023-03-16T17:26:24.261Z,3.90
2023-03-16T17:28:55.116Z,4.15
2023-03-16T17:31:26.447Z,3.63
2023-03-16T17:33:57.071Z,3.10
2023-03-16T17:36:29.274Z,2.58
2023-03-16T17:39:02.143Z,3.28
2023-03-16T17:41:33.241Z,4.28
2023-03-16T17:44:05.766Z,2.78
2023-03-16T17:46:35.699Z,2.55
2023-03-16T17:49:05.816Z,2.58
2023-03-16T17:51:40.355Z,2.80
2023-03-16T17:54:10.113Z,3.30
2023-03-16T17:56:40.397Z,2.15
2023-03-16T17:59:11.383Z,3.17
2023-03-16T18:01:41.087Z,2.85
2023-03-16T18:04:18.415Z,2.95
2023-03-16T18:06:51.302Z,2.28
2023-03-16T18:09:22.115Z,3.33
2023-03-16T18:11:52.615Z,3.15
2023-03-16T18:14:34.867Z,3.50
2023-03-16T18:17:05.727Z,2.83
2023-03-16T18:19:35.599Z,3.05
2023-03-16T18:22:09.096Z,2.78
2023-03-16T18:24:38.738Z,2.80
2023-03-16T18:27:09.330Z,3.67
2023-03-16T18:29:39.409Z,2.88
2023-03-16T18:32:09.005Z,3.08
2023-03-16T18:34:38.483Z,3.25
2023-03-16T18:37:15.086Z,4.25
2023-03-16T18:39:44.668Z,3.67
2023-03-16T18:42:21.084Z,3.72
2023-03-16T18:44:51.197Z,3.13
2023-03-16T18:47:22.153Z,3.35
2023-03-16T18:49:54.286Z,2.78
2023-03-16T18:52:28.046Z,3.55
2023-03-16T18:54:58.395Z,3.90
2023-03-16T18:57:29.389Z,3.33
2023-03-16T18:59:58.957Z,3.30
2023-03-16T19:02:34.291Z,2.83
2023-03-16T19:05:05.041Z,3.33
2023-03-16T19:07:37.991Z,2.83
2023-03-16T19:10:10.738Z,4.65
2023-03-16T19:12:40.228Z,5.38
2023-03-16T19:15:16.670Z,2.95
2023-03-16T19:17:46.475Z,2.42
2023-03-16T19:20:17.027Z,3.15
2023-03-16T19:22:50.038Z,2.55
2023-03-16T19:25:21.132Z,2.60
2023-03-16T19:27:51.331Z,4.00
2023-03-16T19:30:23.265Z,2.00
2023-03-16T19:32:53.141Z,2.25
2023-03-16T19:35:22.840Z,2.70
2023-03-16T19:37:55.170Z,3.03
2023-03-16T19:40:25.741Z,2.92
2023-03-16T19:42:55.364Z,2.92
2023-03-16T19:45:26.661Z,2.95
2023-03-16T19:47:56.290Z,3.50
2023-03-16T19:50:27.006Z,2.38
2023-03-16T19:53:01.352Z,2.22
2023-03-16T19:55:32.745Z,2.25
2023-03-16T19:58:06.153Z,2.45
2023-03-16T20:00:36.156Z,2.47
2023-03-16T20:03:05.693Z,2.53
2023-03-16T20:05:38.629Z,2.60
2023-03-16T20:08:16.531Z,2.42
2023-03-16T20:10:47.170Z,2.33
2023-03-16T20:13:16.859Z,2.88
2023-03-16T20:15:46.634Z,1.70
2023-03-16T20:18:17.407Z,2.30
2023-03-16T20:20:46.928Z,2.08
2023-03-16T20:23:22.243Z,2.50
2023-03-16T20:25:52.224Z,2.60
2023-03-16T20:28:22.497Z,2.22
2023-03-16T20:30:53.060Z,2.17
2023-03-16T20:33:24.288Z,2.35
2023-03-16T20:35:54.184Z,2.35
2023-03-16T20:38:26.404Z,2.33
2023-03-16T20:40:57.895Z,1.85
2023-03-16T20:43:28.438Z,2.00
2023-03-16T20:45:59.228Z,2.40
2023-03-16T20:48:29.396Z,2.13
2023-03-16T20:51:00.890Z,1.83
2023-03-16T20:53:33.315Z,2.47
2023-03-16T20:56:03.198Z,1.87
2023-03-16T20:58:33.482Z,2.22
2023-03-16T21:01:03.795Z,1.90
2023-03-16T21:03:33.850Z,2.30
2023-03-16T21:06:03.830Z,2.40
2023-03-16T21:08:35.927Z,2.10
2023-03-16T21:11:05.600Z,1.95
2023-03-16T21:13:36.555Z,2.28
2023-03-16T21:16:06.464Z,2.40
2023-03-16T21:18:36.723Z,3.67
2023-03-16T21:21:06.650Z,2.28
2023-03-16T21:23:38.806Z,2.42
2023-03-16T21:26:09.518Z,2.50
2023-03-16T21:28:39.074Z,2.28
2023-03-16T21:31:08.634Z,2.25
2023-03-16T21:33:39.023Z,2.10
2023-03-16T21:36:09.965Z,2.10
2023-03-16T21:38:42.153Z,2.20
2023-03-16T21:41:11.748Z,2.83
2023-03-16T21:43:41.898Z,2.27
2023-03-16T21:46:16.799Z,2.97
2023-03-16T21:48:46.905Z,2.20
2023-03-16T21:51:18.293Z,3.90
2023-03-16T21:53:50.896Z,2.20
2023-03-16T21:56:22.900Z,2.30
2023-03-16T21:58:52.866Z,2.30
2023-03-16T22:01:24.803Z,2.63
2023-03-16T22:03:57.458Z,2.30
2023-03-16T22:06:28.260Z,2.13
2023-03-16T22:09:00.925Z,1.85
2023-03-16T22:11:31.518Z,2.13
2023-03-16T22:14:01.839Z,2.63
2023-03-16T22:16:34.895Z,2.97
2023-03-16T22:19:05.020Z,2.23
2023-03-16T22:21:35.618Z,2.00
2023-03-16T22:24:09.002Z,2.03
2023-03-16T22:26:38.546Z,3.37
2023-03-16T22:29:16.933Z,1.83
2023-03-16T22:31:47.086Z,1.83
2023-03-16T22:34:23.756Z,2.13
2023-03-16T22:36:53.366Z,3.80
2023-03-16T22:39:25.526Z,2.07
2023-03-16T22:41:55.118Z,2.10
2023-03-16T22:44:25.174Z,2.90
2023-03-16T22:46:54.742Z,1.60
2023-03-16T22:49:25.741Z,1.50
2023-03-16T22:51:57.118Z,1.83
2023-03-16T22:54:30.949Z,1.83
2023-03-16T22:57:00.543Z,1.85
2023-03-16T22:59:30.499Z,1.83
2023-03-16T23:02:00.092Z,1.70
2023-03-16T23:04:32.894Z,1.73
2023-03-16T23:07:02.472Z,2.33
2023-03-16T23:09:34.634Z,1.30
2023-03-16T23:12:04.152Z,1.67
2023-03-16T23:14:35.464Z,1.77
2023-03-16T23:17:04.964Z,2.10
2023-03-16T23:19:36.147Z,1.50
2023-03-16T23:22:06.553Z,1.63
2023-03-16T23:24:38.743Z,2.23
2023-03-16T23:27:10.016Z,1.23
2023-03-16T23:29:39.553Z,1.70
2023-03-16T23:32:09.618Z,1.60
2023-03-16T23:34:39.273Z,1.57
2023-03-16T23:37:08.772Z,2.05
2023-03-16T23:39:40.846Z,2.70
2023-03-16T23:42:11.037Z,2.40
2023-03-16T23:44:40.548Z,2.23
2023-03-16T23:47:10.218Z,1.83
2023-03-16T23:49:41.527Z,1.97
2023-03-16T23:52:13.523Z,1.42
2023-03-16T23:54:45.976Z,2.00
2023-03-16T23:57:15.685Z,1.70
2023-03-16T23:59:45.176Z,4.10
